Time;durP1;ratioP1;P1;durP2;ratioP2;P2;SDS_P1;SDS_P2;PMS_P1;PMS_P2;Temp;Humidity;BMP_temperature;BMP_pressure;BME280_temperature;BME280_humidity;BME280_pressure;Samples;Min_cycle;Max_cycle;Signal;HPM_P1;HPM_P2
2023/12/21 00:00:03;;;;;;;10.68;4.82;;;;;;;10.80;100.00;100715.44;5343921;27;20495;-78
2023/12/21 00:02:35;;;;;;;9.73;4.82;;;;;;;10.76;100.00;100722.72;5328113;27;20047;-78
2023/12/21 00:05:07;;;;;;;9.73;4.68;;;;;;;10.77;100.00;100711.28;5344245;27;20026;-78
2023/12/21 00:07:39;;;;;;;9.32;4.68;;;;;;;10.78;100.00;100702.44;5348046;27;20030;-79
2023/12/21 00:10:11;;;;;;;10.15;3.90;;;;;;;10.83;100.00;100692.38;5344628;27;20403;-78
2023/12/21 00:12:43;;;;;;;9.30;4.28;;;;;;;10.77;100.00;100679.00;5346042;27;20074;-78
2023/12/21 00:15:15;;;;;;;10.35;4.18;;;;;;;10.81;100.00;100683.00;5344615;27;20061;-78
2023/12/21 00:17:47;;;;;;;8.65;4.47;;;;;;;10.77;100.00;100682.44;5345484;27;20023;-78
2023/12/21 00:20:20;;;;;;;8.43;5.28;;;;;;;10.81;100.00;100675.97;5342389;27;20031;-78
2023/12/21 00:22:52;;;;;;;9.93;4.30;;;;;;;10.87;100.00;100674.59;5344109;27;20038;-78
2023/12/21 00:25:24;;;;;;;9.52;4.35;;;;;;;10.86;100.00;100657.22;5349289;27;20030;-78
2023/12/21 00:27:56;;;;;;;8.95;4.55;;;;;;;10.85;100.00;100656.38;5344734;27;20027;-78
2023/12/21 00:30:27;;;;;;;12.45;5.13;;;;;;;10.88;100.00;100648.25;5343594;27;20027;-78
2023/12/21 00:32:59;;;;;;;9.23;5.18;;;;;;;10.86;100.00;100642.31;5351624;27;20052;-78
2023/12/21 00:35:31;;;;;;;9.93;4.65;;;;;;;10.85;100.00;100630.19;5353543;27;20479;-78
2023/12/21 00:38:03;;;;;;;10.32;5.15;;;;;;;10.82;100.00;100632.25;5349621;27;20038;-78
2023/12/21 00:40:35;;;;;;;11.43;4.75;;;;;;;10.83;100.00;100631.28;5352220;27;20027;-78
2023/12/21 00:43:07;;;;;;;12.65;5.38;;;;;;;10.79;100.00;100635.97;5350601;27;20132;-78
2023/12/21 00:45:39;;;;;;;10.90;5.10;;;;;;;10.85;100.00;100624.13;5348219;27;20037;-78
2023/12/21 00:48:11;;;;;;;6.30;4.32;;;;;;;10.84;100.00;100617.22;5347129;27;20524;-79
2023/12/21 00:50:43;;;;;;;9.60;5.07;;;;;;;10.91;100.00;100608.69;5352089;27;20043;-78
2023/12/21 00:53:16;;;;;;;9.50;5.63;;;;;;;10.89;100.00;100605.34;5346089;27;20865;-78
2023/12/21 00:55:48;;;;;;;9.02;5.90;;;;;;;10.92;100.00;100601.63;5348519;27;20748;-78
2023/12/21 00:58:20;;;;;;;9.57;5.65;;;;;;;10.52;100.00;100588.63;5349147;27;20035;-78
2023/12/21 01:00:52;;;;;;;7.78;5.28;;;;;;;10.46;100.00;100588.22;5346015;27;20027;-78
2023/12/21 01:03:23;;;;;;;11.02;5.95;;;;;;;10.31;100.00;100566.00;5346297;27;20043;-78
2023/12/21 01:05:55;;;;;;;11.32;6.13;;;;;;;10.39;100.00;100584.50;5348483;27;20385;-78
2023/12/21 01:08:27;;;;;;;9.15;5.65;;;;;;;10.32;100.00;100570.28;5344437;27;20093;-78
2023/12/21 01:11:00;;;;;;;10.15;5.50;;;;;;;10.37;100.00;100570.69;5347789;27;20027;-78
2023/12/21 01:13:33;;;;;;;12.13;5.65;;;;;;;10.40;100.00;100562.56;5329140;27;20057;-78
2023/12/21 01:16:05;;;;;;;9.85;5.28;;;;;;;10.39;100.00;100560.91;5350311;27;20061;-78
2023/12/21 01:18:37;;;;;;;10.10;5.45;;;;;;;10.34;100.00;100551.81;5348017;27;20081;-78
2023/12/21 01:21:09;;;;;;;13.77;6.00;;;;;;;10.31;100.00;100541.63;5352173;27;20031;-77
2023/12/21 01:23:41;;;;;;;13.75;5.90;;;;;;;10.32;100.00;100557.19;5346276;27;20035;-78
2023/12/21 01:26:13;;;;;;;8.77;4.85;;;;;;;10.30;100.00;100556.47;5346715;27;20041;-78
2023/12/21 01:28:45;;;;;;;9.93;4.95;;;;;;;10.25;100.00;100545.59;5346046;27;20476;-78
2023/12/21 01:31:16;;;;;;;10.43;5.10;;;;;;;10.26;100.00;100546.41;5349382;27;21326;-78
2023/12/21 01:33:48;;;;;;;9.65;5.20;;;;;;;10.26;100.00;100543.81;5349873;27;20049;-78
2023/12/21 01:36:20;;;;;;;11.90;5.50;;;;;;;10.24;100.00;100533.44;5350123;27;20022;-78
2023/12/21 01:38:52;;;;;;;9.48;4.57;;;;;;;10.26;100.00;100522.84;5353286;27;20030;-78
2023/12/21 01:41:24;;;;;;;11.85;5.55;;;;;;;10.27;100.00;100525.34;5348810;27;20038;-78
2023/12/21 01:43:56;;;;;;;9.43;5.30;;;;;;;10.28;100.00;100532.25;5350153;27;20031;-78
2023/12/21 01:46:29;;;;;;;11.95;6.45;;;;;;;10.26;100.00;100523.69;5352805;27;20076;-78
2023/12/21 01:49:02;;;;;;;10.65;5.57;;;;;;;10.24;100.00;100512.50;5348954;27;20232;-77
2023/12/21 01:51:33;;;;;;;12.77;6.63;;;;;;;10.31;100.00;100515.44;5348636;27;20376;-78
2023/12/21 01:54:07;;;;;;;8.70;6.00;;;;;;;10.28;100.00;100506.06;5350710;27;20043;-78
2023/12/21 01:56:38;;;;;;;;;;;;;;;10.79;100.00;100499.69;5347641;27;20711;-78
2023/12/21 01:59:10;;;;;;;12.25;6.82;;;;;;;10.31;100.00;100508.41;5331920;27;19915;-78
2023/12/21 02:01:42;;;;;;;13.57;6.75;;;;;;;10.27;100.00;100507.03;5352763;27;20035;-78
2023/12/21 02:04:14;;;;;;;10.93;7.00;;;;;;;10.30;100.00;100525.06;5347230;27;20027;-77
2023/12/21 02:06:47;;;;;;;13.52;7.43;;;;;;;10.27;100.00;100514.06;5350738;27;20031;-77
2023/12/21 02:09:19;;;;;;;15.23;8.13;;;;;;;10.34;100.00;100510.75;5349771;27;20031;-77
2023/12/21 02:11:50;;;;;;;11.80;7.22;;;;;;;10.26;100.00;100501.91;5350173;27;20038;-77
2023/12/21 02:14:22;;;;;;;11.02;6.72;;;;;;;10.34;100.00;100510.75;5349160;27;20392;-77
2023/12/21 02:17:08;;;;;;;16.60;7.90;;;;;;;10.48;100.00;100504.28;5351035;27;20030;-77
2023/12/21 02:19:41;;;;;;;9.52;6.78;;;;;;;10.35;100.00;100498.50;5351258;27;20389;-77
2023/12/21 02:22:15;;;;;;;17.70;7.82;;;;;;;10.38;100.00;100501.66;5346819;27;20035;-77
2023/12/21 02:24:48;;;;;;;11.98;7.32;;;;;;;10.34;100.00;100500.28;5352883;27;20039;-77
2023/12/21 02:27:20;;;;;;;13.87;7.77;;;;;;;10.37;100.00;100491.31;5350240;27;20031;-77
2023/12/21 02:29:51;;;;;;;10.48;6.93;;;;;;;10.36;100.00;100472.16;5350214;27;20590;-77
2023/12/21 02:32:23;;;;;;;12.82;6.90;;;;;;;10.38;100.00;100480.72;5350250;27;20075;-77
2023/12/21 02:34:55;;;;;;;11.82;6.28;;;;;;;10.38;100.00;100469.38;5349257;27;20558;-77
2023/12/21 02:37:27;;;;;;;13.75;6.25;;;;;;;10.37;100.00;100462.50;5349294;27;20479;-77
2023/12/21 02:39:59;;;;;;;11.90;6.75;;;;;;;10.38;100.00;100459.75;5344629;27;20404;-77
2023/12/21 02:42:31;;;;;;;17.15;7.10;;;;;;;10.35;100.00;100456.59;5346987;27;20037;-78
2023/12/21 02:45:03;;;;;;;11.85;6.35;;;;;;;10.38;100.00;100446.66;5348172;27;20035;-77
2023/12/21 02:47:35;;;;;;;12.98;6.60;;;;;;;10.38;100.00;100446.66;5346342;27;20031;-77
2023/12/21 02:50:07;;;;;;;14.55;7.25;;;;;;;10.40;100.00;100452.59;5346896;27;20037;-77
2023/12/21 02:52:39;;;;;;;15.48;7.25;;;;;;;10.44;100.00;100448.72;5351176;27;20027;-77
2023/12/21 02:55:11;;;;;;;11.70;6.57;;;;;;;10.40;100.00;100442.09;5349815;27;20043;-77
2023/12/21 02:57:43;;;;;;;11.13;6.68;;;;;;;10.39;100.00;100448.31;5352274;27;20402;-77
2023/12/21 03:00:15;;;;;;;14.10;6.35;;;;;;;10.38;100.00;100437.97;5347602;27;20035;-77
2023/12/21 03:02:47;;;;;;;14.60;6.05;;;;;;;10.41;100.00;100435.06;5340410;27;20027;-78
2023/12/21 03:05:19;;;;;;;18.75;6.65;;;;;;;10.41;100.00;100433.28;5346736;27;20480;-77
2023/12/21 03:07:53;;;;;;;12.93;5.88;;;;;;;10.43;100.00;100438.41;5343577;27;20033;-78
2023/12/21 03:10:25;;;;;;;13.60;5.65;;;;;;;10.38;100.00;100428.34;5343784;27;20031;-77
2023/12/21 03:12:58;;;;;;;15.43;6.00;;;;;;;10.37;100.00;100424.03;5344679;27;20607;-77
2023/12/21 03:15:31;;;;;;;9.33;5.23;;;;;;;10.39;100.00;100421.31;5342771;27;20042;-78
2023/12/21 03:18:03;;;;;;;13.23;5.30;;;;;;;10.39;100.00;100382.03;5347624;27;21102;-77
2023/12/21 03:20:35;;;;;;;10.23;5.30;;;;;;;10.39;100.00;100359.28;5348810;27;20035;-77
2023/12/21 03:23:07;;;;;;;12.07;5.45;;;;;;;10.82;100.00;100352.66;5344612;27;20474;-77
2023/12/21 03:25:39;;;;;;;11.07;4.50;;;;;;;10.87;100.00;100342.59;5349010;27;20023;-77
2023/12/21 03:28:14;;;;;;;15.50;5.22;;;;;;;10.51;100.00;100339.00;5345163;27;20034;-77
2023/12/21 03:30:45;;;;;;;10.52;4.70;;;;;;;10.38;100.00;100320.13;5356242;27;20030;-77
2023/12/21 03:33:17;;;;;;;12.98;5.15;;;;;;;10.40;100.00;100347.00;5352120;27;20018;-77
2023/12/21 03:35:49;;;;;;;13.27;5.15;;;;;;;10.39;100.00;100338.34;5353415;27;20459;-77
2023/12/21 03:38:21;;;;;;;16.77;5.32;;;;;;;10.37;100.00;100327.16;5353712;27;20049;-77
2023/12/21 03:40:53;;;;;;;14.23;4.80;;;;;;;10.39;100.00;100321.81;5350859;27;20457;-77
2023/12/21 03:43:25;;;;;;;15.02;4.45;;;;;;;10.40;100.00;100315.59;5353724;27;20035;-78
2023/12/21 03:45:57;;;;;;;15.57;4.65;;;;;;;10.39;100.00;100306.91;5354399;27;20027;-77
2023/12/21 03:48:29;;;;;;;14.18;4.97;;;;;;;10.40;100.00;100310.34;5352015;27;20103;-77
2023/12/21 03:51:00;;;;;;;16.80;5.65;;;;;;;10.37;100.00;100302.78;5349320;27;20045;-78
2023/12/21 03:53:32;;;;;;;16.95;5.30;;;;;;;10.37;100.00;100290.50;5353055;27;20035;-77
2023/12/21 03:56:05;;;;;;;14.50;5.53;;;;;;;10.40;100.00;100299.88;5350748;27;20118;-78
2023/12/21 03:58:39;;;;;;;13.98;5.22;;;;;;;10.40;100.00;100292.03;5353915;27;20031;-78
2023/12/21 04:01:11;;;;;;;14.18;5.28;;;;;;;10.42;100.00;100284.84;5356191;27;20026;-78
2023/12/21 04:03:43;;;;;;;17.15;6.32;;;;;;;10.42;100.00;100274.38;5348956;27;20038;-77
2023/12/21 04:06:15;;;;;;;16.30;6.68;;;;;;;10.36;100.00;100273.16;5353118;27;20031;-78
2023/12/21 04:08:47;;;;;;;16.88;6.47;;;;;;;10.40;100.00;100277.13;5352690;27;20109;-77
2023/12/21 04:11:19;;;;;;;20.33;7.38;;;;;;;10.43;100.00;100278.66;5355892;27;20099;-78
2023/12/21 04:13:51;;;;;;;17.42;6.70;;;;;;;10.47;100.00;100283.44;5355189;27;20098;-78
2023/12/21 04:16:22;;;;;;;15.80;7.47;;;;;;;10.39;100.00;100251.91;5354780;27;20449;-78
2023/12/21 04:18:54;;;;;;;11.85;6.57;;;;;;;10.47;100.00;100256.44;5354810;27;20053;-77
2023/12/21 04:21:26;;;;;;;14.55;7.40;;;;;;;10.49;100.00;100257.09;5353440;27;20023;-77
2023/12/21 04:23:58;;;;;;;17.10;7.60;;;;;;;10.51;100.00;100241.25;5354284;27;20154;-77
2023/12/21 04:26:30;;;;;;;16.40;7.22;;;;;;;10.51;100.00;100238.66;5352954;27;20023;-78
2023/12/21 04:29:02;;;;;;;15.13;7.30;;;;;;;10.53;100.00;100231.44;5347747;27;20521;-78
2023/12/21 04:31:34;;;;;;;16.35;8.43;;;;;;;10.53;100.00;100224.44;5357582;27;20117;-78
2023/12/21 04:34:06;;;;;;;16.95;8.38;;;;;;;10.49;100.00;100230.91;5352185;27;20022;-77
2023/12/21 04:36:38;;;;;;;17.73;8.40;;;;;;;10.55;100.00;100219.06;5349069;27;20019;-78
2023/12/21 04:39:10;;;;;;;15.65;7.97;;;;;;;10.54;100.00;100199.91;5353438;27;20023;-77
2023/12/21 04:41:42;;;;;;;17.38;8.57;;;;;;;10.59;100.00;100194.22;5351749;27;20114;-78
2023/12/21 04:44:13;;;;;;;17.83;8.05;;;;;;;10.64;100.00;100187.56;5351003;27;20035;-78
2023/12/21 04:46:48;;;;;;;16.40;8.35;;;;;;;10.67;100.00;100199.53;5336941;27;20480;-78
2023/12/21 04:49:22;;;;;;;21.50;8.00;;;;;;;10.67;100.00;100199.53;5357787;27;20031;-78
2023/12/21 04:51:54;;;;;;;16.05;7.45;;;;;;;10.71;100.00;100182.56;5350635;27;20403;-77
2023/12/21 04:54:26;;;;;;;13.20;7.75;;;;;;;10.71;100.00;100165.03;5351479;27;20130;-78
2023/12/21 04:56:58;;;;;;;15.48;7.50;;;;;;;10.69;100.00;100158.31;5351926;27;20117;-77
2023/12/21 04:59:30;;;;;;;14.27;7.20;;;;;;;10.71;100.00;100164.22;5329350;27;20043;-78
2023/12/21 05:02:02;;;;;;;13.10;6.70;;;;;;;10.75;100.00;100146.41;5352629;27;20027;-78
2023/12/21 05:04:34;;;;;;;16.95;7.30;;;;;;;10.74;100.00;100150.00;5350062;27;20047;-77
2023/12/21 05:07:08;;;;;;;15.15;7.53;;;;;;;10.77;100.00;100134.00;5347909;27;20379;-78
2023/12/21 05:09:40;;;;;;;15.65;7.05;;;;;;;10.74;100.00;100118.56;5349800;27;20050;-78
2023/12/21 05:12:12;;;;;;;12.30;5.70;;;;;;;10.77;100.00;100123.53;5354980;27;20084;-77
2023/12/21 05:14:44;;;;;;;14.13;6.13;;;;;;;10.78;100.00;100136.47;5351896;27;20027;-78
2023/12/21 05:17:16;;;;;;;15.57;6.13;;;;;;;10.79;100.00;100137.28;5351454;27;20113;-78
2023/12/21 05:19:48;;;;;;;13.35;6.55;;;;;;;10.81;100.00;100135.34;5351560;27;20023;-77
2023/12/21 05:22:20;;;;;;;13.68;5.80;;;;;;;10.83;100.00;100146.47;5353243;27;20026;-77
2023/12/21 05:24:51;;;;;;;11.27;5.43;;;;;;;10.81;100.00;100138.78;5349836;27;20035;-77
2023/12/21 05:27:23;;;;;;;11.93;4.63;;;;;;;10.85;100.00;100134.88;5349679;27;20468;-77
2023/12/21 05:29:55;;;;;;;12.15;4.47;;;;;;;10.87;100.00;100121.63;5348046;27;20423;-77
2023/12/21 05:32:29;;;;;;;10.35;4.45;;;;;;;10.89;100.00;100102.16;5349546;27;20112;-77
2023/12/21 05:35:01;;;;;;;12.10;4.72;;;;;;;10.86;100.00;100089.38;5348053;27;20035;-77
2023/12/21 05:37:33;;;;;;;10.52;3.88;;;;;;;10.90;100.00;100100.38;5347083;27;20491;-77
2023/12/21 05:40:06;;;;;;;13.40;4.43;;;;;;;10.91;100.00;100102.00;5348022;27;20035;-77
2023/12/21 05:42:38;;;;;;;10.35;4.00;;;;;;;10.92;100.00;100091.41;5329222;27;20035;-77
2023/12/21 05:45:10;;;;;;;10.10;3.65;;;;;;;10.93;100.00;100103.50;5346347;27;20046;-77
2023/12/21 05:47:41;;;;;;;14.65;4.32;;;;;;;10.99;100.00;100111.78;5346225;27;20029;-77
2023/12/21 05:50:14;;;;;;;10.30;3.70;;;;;;;10.99;100.00;100107.34;5345533;27;20033;-77
2023/12/21 05:52:46;;;;;;;8.50;3.30;;;;;;;11.00;100.00;100108.16;5343407;27;20031;-77
2023/12/21 05:55:18;;;;;;;10.93;2.97;;;;;;;11.06;100.00;100103.16;5348480;27;20050;-77
2023/12/21 05:57:50;;;;;;;8.15;3.67;;;;;;;11.03;100.00;100097.38;5354181;27;20034;-77
2023/12/21 06:00:21;;;;;;;10.23;3.90;;;;;;;11.05;100.00;100113.78;5351320;27;20490;-77
2023/12/21 06:02:53;;;;;;;9.32;2.95;;;;;;;11.00;100.00;100108.16;5339716;27;20579;-77
2023/12/21 06:05:25;;;;;;;9.73;3.53;;;;;;;11.01;100.00;100099.31;5349155;27;20050;-77
2023/12/21 06:07:57;;;;;;;8.50;3.58;;;;;;;10.99;100.00;100101.28;5348379;27;20117;-77
2023/12/21 06:10:29;;;;;;;8.52;3.47;;;;;;;11.03;100.00;100108.69;5348374;27;20027;-77
2023/12/21 06:13:01;;;;;;;9.30;3.72;;;;;;;10.91;100.00;100083.66;5345341;27;20027;-77
2023/12/21 06:15:33;;;;;;;9.45;4.13;;;;;;;10.95;100.00;100085.84;5349665;27;20031;-77
2023/12/21 06:18:05;;;;;;;8.35;3.92;;;;;;;10.99;100.00;100096.88;5347842;27;20025;-77
2023/12/21 06:20:37;;;;;;;8.23;4.50;;;;;;;10.93;100.00;100071.25;5349588;27;20038;-77
2023/12/21 06:23:08;;;;;;;7.60;4.50;;;;;;;10.91;100.00;100053.06;5347977;27;20041;-77
2023/12/21 06:25:40;;;;;;;10.25;4.85;;;;;;;10.89;100.00;100041.91;5350394;27;20030;-77
2023/12/21 06:28:12;;;;;;;11.25;5.70;;;;;;;10.86;100.00;100023.03;5349836;27;20029;-77
2023/12/21 06:30:44;;;;;;;10.30;4.97;;;;;;;10.90;100.00;100034.84;5341392;27;20112;-77
2023/12/21 06:33:16;;;;;;;8.32;4.65;;;;;;;10.92;100.00;100048.66;5345715;27;20030;-77
2023/12/21 06:35:48;;;;;;;11.20;5.78;;;;;;;10.91;100.00;100060.94;5348338;27;20049;-77
2023/12/21 06:38:20;;;;;;;9.68;5.03;;;;;;;10.91;100.00;100066.16;5341542;27;20515;-77
2023/12/21 06:40:52;;;;;;;8.30;4.60;;;;;;;10.94;100.00;100051.91;5346986;27;20126;-77
2023/12/21 06:43:24;;;;;;;8.02;4.72;;;;;;;10.92;100.00;100027.69;5350088;27;20045;-77
2023/12/21 06:45:57;;;;;;;12.93;4.57;;;;;;;10.95;100.00;100041.31;5345982;27;20026;-77
2023/12/21 06:48:29;;;;;;;10.57;4.10;;;;;;;10.95;100.00;100043.91;5348963;27;20031;-77
2023/12/21 06:51:01;;;;;;;8.35;4.05;;;;;;;10.95;100.00;100038.69;5343702;27;20410;-77
2023/12/21 06:53:33;;;;;;;9.88;4.00;;;;;;;11.04;100.00;100031.69;5348724;27;20049;-77
2023/12/21 06:56:05;;;;;;;8.80;3.63;;;;;;;11.03;100.00;100014.34;5345734;27;20046;-78
2023/12/21 06:58:37;;;;;;;8.48;3.47;;;;;;;11.03;100.00;100003.84;5346080;27;20405;-78
2023/12/21 07:01:10;;;;;;;8.50;3.35;;;;;;;10.98;100.00;99989.53;5345651;27;20096;-77
2023/12/21 07:03:41;;;;;;;8.95;3.40;;;;;;;11.00;100.00;99980.56;5347824;27;20027;-77
2023/12/21 07:06:13;;;;;;;8.00;3.25;;;;;;;11.03;100.00;99987.31;5341456;27;20454;-77
2023/12/21 07:08:45;;;;;;;8.73;3.25;;;;;;;11.03;100.00;99977.63;5345058;27;20574;-77
2023/12/21 07:11:18;;;;;;;9.48;3.45;;;;;;;11.04;100.00;99967.97;5345883;27;20114;-77
2023/12/21 07:13:49;;;;;;;8.47;3.43;;;;;;;11.08;100.00;99969.31;5348393;27;20074;-77
2023/12/21 07:16:23;;;;;;;9.40;3.30;;;;;;;11.07;100.00;99958.00;5346203;27;20541;-77
2023/12/21 07:18:54;;;;;;;9.07;3.72;;;;;;;11.11;100.00;99959.31;5342998;27;20023;-77
2023/12/21 07:21:26;;;;;;;7.35;3.50;;;;;;;11.06;100.00;99956.38;5345317;27;20457;-77
2023/12/21 07:23:58;;;;;;;7.88;3.28;;;;;;;11.10;100.00;99954.22;5346624;27;20591;-77
2023/12/21 07:26:30;;;;;;;8.38;3.22;;;;;;;11.06;100.00;99945.88;5347566;27;20110;-77
2023/12/21 07:29:02;;;;;;;9.20;3.20;;;;;;;11.05;100.00;99941.59;5343926;27;20034;-77
2023/12/21 07:31:34;;;;;;;10.52;3.33;;;;;;;11.15;100.00;99928.38;5340869;27;20037;-77
2023/12/21 07:34:06;;;;;;;9.43;3.25;;;;;;;11.14;100.00;99938.06;5344286;27;20022;-77
2023/12/21 07:36:38;;;;;;;10.00;3.55;;;;;;;11.16;100.00;99920.34;5347571;27;20035;-77
2023/12/21 07:39:11;;;;;;;6.28;2.40;;;;;;;11.19;100.00;99911.38;5340372;27;20110;-77
2023/12/21 07:41:43;;;;;;;;;;;;;;;11.67;100.00;99907.28;5342417;27;20038;-77
2023/12/21 07:44:15;;;;;;;8.40;2.40;;;;;;;11.24;100.00;99901.22;5347443;27;19954;-77
2023/12/21 07:46:47;;;;;;;5.82;2.10;;;;;;;11.24;100.00;99890.72;5344218;27;20031;-77
2023/12/21 07:49:19;;;;;;;9.98;3.25;;;;;;;11.28;100.00;99897.28;5343690;27;20452;-77
2023/12/21 07:51:51;;;;;;;7.25;2.70;;;;;;;11.27;100.00;99898.28;5342294;27;20087;-77
2023/12/21 07:54:23;;;;;;;7.75;2.63;;;;;;;11.34;100.00;99907.16;5345934;27;20043;-77
2023/12/21 07:56:55;;;;;;;9.63;2.75;;;;;;;11.36;100.00;99893.88;5341356;27;20050;-77
2023/12/21 07:59:27;;;;;;;10.13;3.30;;;;;;;11.38;100.00;99895.38;5338607;27;20371;-77
2023/12/21 08:01:59;;;;;;;5.60;2.17;;;;;;;11.35;100.00;99908.81;5336018;27;20039;-77
2023/12/21 08:04:31;;;;;;;8.32;2.13;;;;;;;11.31;100.00;99902.22;5339764;27;20046;-77
2023/12/21 08:07:03;;;;;;;5.20;2.20;;;;;;;11.30;100.00;99884.03;5345376;27;20031;-77
2023/12/21 08:09:35;;;;;;;6.85;2.22;;;;;;;11.28;100.00;99902.53;5339846;27;20035;-77
2023/12/21 08:12:08;;;;;;;8.77;2.03;;;;;;;11.23;100.00;99891.72;5338018;27;20379;-77
2023/12/21 08:14:40;;;;;;;;;;;;;;;11.72;100.00;99885.81;5341188;27;20038;-77
2023/12/21 08:17:13;;;;;;;8.93;2.63;;;;;;;11.18;100.00;99868.59;5343458;27;19960;-77
2023/12/21 08:19:45;;;;;;;6.75;3.25;;;;;;;11.16;100.00;99896.75;5341819;27;20035;-77
2023/12/21 08:22:17;;;;;;;6.95;2.35;;;;;;;11.16;100.00;99877.59;5343043;27;20027;-77
2023/12/21 08:24:51;;;;;;;7.18;2.78;;;;;;;11.15;100.00;99860.22;5343732;27;20033;-77
2023/12/21 08:27:23;;;;;;;7.60;2.88;;;;;;;11.13;100.00;99859.53;5336740;27;20034;-76
2023/12/21 08:29:55;;;;;;;6.05;2.00;;;;;;;11.13;100.00;99851.69;5341691;27;20034;-76
2023/12/21 08:32:27;;;;;;;4.78;2.20;;;;;;;11.15;100.00;99861.03;5343674;27;20035;-77
2023/12/21 08:34:59;;;;;;;7.40;2.50;;;;;;;11.11;100.00;99864.16;5343266;27;20031;-77
2023/12/21 08:37:31;;;;;;;3.75;2.20;;;;;;;11.17;100.00;99863.50;5346532;27;20031;-76
2023/12/21 08:40:04;;;;;;;4.38;2.15;;;;;;;11.20;100.00;99869.25;5340752;27;20038;-76
2023/12/21 08:42:36;;;;;;;5.97;2.05;;;;;;;11.20;100.00;99855.31;5344333;27;20038;-76
2023/12/21 08:45:09;;;;;;;8.75;2.78;;;;;;;11.16;100.00;99854.00;5339732;27;20529;-77
2023/12/21 08:47:41;;;;;;;5.05;2.20;;;;;;;11.19;100.00;99849.25;5341456;27;20064;-76
2023/12/21 08:50:13;;;;;;;6.18;2.00;;;;;;;11.15;100.00;99853.19;5341966;27;20053;-76
2023/12/21 08:52:45;;;;;;;8.45;2.45;;;;;;;11.16;100.00;99833.03;5344771;27;20065;-76
2023/12/21 08:55:17;;;;;;;7.30;2.42;;;;;;;11.20;100.00;99842.22;5344552;27;20078;-76
2023/12/21 08:57:49;;;;;;;3.92;2.08;;;;;;;11.19;100.00;99824.84;5346519;27;20114;-76
2023/12/21 09:00:21;;;;;;;6.70;2.50;;;;;;;11.20;100.00;99829.91;5346157;27;20201;-77
2023/12/21 09:02:53;;;;;;;6.20;2.40;;;;;;;11.28;100.00;99809.94;5340747;27;20034;-77
2023/12/21 09:05:25;;;;;;;4.68;2.38;;;;;;;11.27;100.00;99824.06;5340462;27;20122;-77
2023/12/21 09:07:57;;;;;;;5.63;2.08;;;;;;;11.32;100.00;99825.19;5340972;27;20124;-77
2023/12/21 09:10:29;;;;;;;6.53;2.28;;;;;;;11.33;100.00;99810.31;5342197;27;20403;-77
2023/12/21 09:13:02;;;;;;;7.95;2.85;;;;;;;11.35;100.00;99822.25;5346355;27;20031;-77
2023/12/21 09:15:36;;;;;;;5.65;1.75;;;;;;;11.42;100.00;99809.34;5342952;27;20031;-77
2023/12/21 09:18:08;;;;;;;5.15;1.98;;;;;;;11.40;100.00;99812.13;5344460;27;20137;-76
2023/12/21 09:20:40;;;;;;;6.90;1.85;;;;;;;11.44;100.00;99816.06;5344739;27;20114;-76
2023/12/21 09:23:13;;;;;;;5.25;2.42;;;;;;;11.42;100.00;99830.31;5347917;27;20031;-76
2023/12/21 09:25:44;;;;;;;5.18;1.90;;;;;;;11.48;100.00;99807.84;5348971;27;20023;-76
2023/12/21 09:28:16;;;;;;;6.13;2.15;;;;;;;11.47;100.00;99811.47;5348515;27;20038;-76
2023/12/21 09:30:48;;;;;;;5.03;1.83;;;;;;;11.51;100.00;99789.19;5347111;27;20364;-76
2023/12/21 09:33:20;;;;;;;5.60;1.73;;;;;;;11.47;100.00;99799.19;5352571;27;20031;-76
2023/12/21 09:35:55;;;;;;;6.70;2.20;;;;;;;11.48;100.00;99798.22;5349807;27;20034;-76
2023/12/21 09:38:27;;;;;;;4.85;2.17;;;;;;;11.51;100.00;99781.31;5347343;27;20951;-76
2023/12/21 09:40:59;;;;;;;4.68;1.65;;;;;;;11.49;100.00;99778.06;5342495;27;20081;-76
2023/12/21 09:43:33;;;;;;;4.93;1.65;;;;;;;11.53;100.00;99787.22;5348188;27;20034;-76
2023/12/21 09:46:05;;;;;;;7.10;1.63;;;;;;;11.53;100.00;99784.59;5347151;27;20499;-76
2023/12/21 09:48:40;;;;;;;4.00;1.30;;;;;;;11.58;100.00;99777.06;5343841;27;20023;-76
2023/12/21 09:51:15;;;;;;;6.25;1.60;;;;;;;11.59;100.00;99771.66;5346421;27;20510;-76
2023/12/21 09:53:47;;;;;;;6.03;1.45;;;;;;;11.67;100.00;99770.84;5347984;27;20057;-76
2023/12/21 09:56:20;;;;;;;5.22;1.80;;;;;;;11.76;100.00;99769.03;5347464;27;20027;-76
2023/12/21 09:58:52;;;;;;;8.65;2.38;;;;;;;11.82;100.00;99784.97;5341284;27;20039;-76
2023/12/21 10:01:24;;;;;;;10.65;2.00;;;;;;;11.83;100.00;99776.13;5347956;27;20120;-76
2023/12/21 10:03:57;;;;;;;5.60;1.42;;;;;;;11.90;100.00;99761.38;5344494;27;20153;-76
2023/12/21 10:06:29;;;;;;;8.25;2.00;;;;;;;11.92;100.00;99772.50;5349745;27;20050;-76
2023/12/21 10:09:04;;;;;;;8.68;1.65;;;;;;;11.97;100.00;99777.28;5347509;27;20035;-76
2023/12/21 10:11:36;;;;;;;8.27;1.45;;;;;;;12.03;100.00;99760.84;5347933;27;20031;-76
2023/12/21 10:14:19;;;;;;;6.97;1.38;;;;;;;12.14;100.00;99765.75;5348202;27;20496;-76
2023/12/21 10:16:51;;;;;;;8.40;1.70;;;;;;;12.11;100.00;99775.78;5346322;27;20035;-76
2023/12/21 10:19:22;;;;;;;7.63;1.88;;;;;;;12.11;100.00;99767.91;5349408;27;20080;-75
2023/12/21 10:21:54;;;;;;;9.43;1.88;;;;;;;12.21;100.00;99770.34;5345146;27;20027;-76
2023/12/21 10:24:30;;;;;;;6.72;1.40;;;;;;;12.23;100.00;99761.31;5347757;27;20038;-76
2023/12/21 10:27:03;;;;;;;10.60;2.40;;;;;;;12.20;100.00;99761.66;5352203;27;20035;-76
2023/12/21 10:29:35;;;;;;;6.80;1.67;;;;;;;12.26;100.00;99763.59;5346544;27;20034;-76
2023/12/21 10:32:08;;;;;;;6.40;1.70;;;;;;;12.36;100.00;99771.31;5346490;27;20476;-76
2023/12/21 10:34:40;;;;;;;;;;;;;;;12.72;100.00;99773.50;5346936;27;20029;-76
2023/12/21 10:37:14;;;;;;;8.25;1.55;;;;;;;12.22;100.00;99767.56;5348941;27;19911;-76
2023/12/21 10:39:46;;;;;;;8.13;1.50;;;;;;;12.32;100.00;99770.00;5345854;27;20039;-75
2023/12/21 10:42:19;;;;;;;6.85;1.67;;;;;;;12.30;100.00;99759.66;5347540;27;20394;-76
2023/12/21 10:44:51;;;;;;;4.55;1.65;;;;;;;12.32;100.00;99765.56;5350812;27;20396;-77
2023/12/21 10:47:23;;;;;;;5.30;1.50;;;;;;;12.36;100.00;99766.06;5347171;27;20042;-77
2023/12/21 10:49:55;;;;;;;6.95;1.73;;;;;;;12.39;100.00;99766.53;5346238;27;20484;-76
2023/12/21 10:52:27;;;;;;;7.47;1.60;;;;;;;12.27;100.00;99749.47;5349988;27;20035;-76
2023/12/21 10:55:01;;;;;;;5.57;1.60;;;;;;;12.22;100.00;99758.84;5344071;27;20043;-77
2023/12/21 10:57:33;;;;;;;9.55;2.10;;;;;;;12.15;100.00;99761.31;5348092;27;20023;-76
2023/12/21 11:00:12;;;;;;;5.97;1.33;;;;;;;12.23;100.00;99750.81;5347522;27;20027;-76
2023/12/21 11:02:46;;;;;;;7.47;1.55;;;;;;;12.22;100.00;99759.69;5343391;27;20034;-76
2023/12/21 11:05:22;;;;;;;6.97;1.55;;;;;;;12.24;100.00;99739.34;5343914;27;20096;-76
2023/12/21 11:07:54;;;;;;;6.53;1.73;;;;;;;12.24;100.00;99726.19;5345685;27;20038;-76
2023/12/21 11:10:27;;;;;;;7.82;1.88;;;;;;;12.32;100.00;99720.91;5344833;27;20030;-76
2023/12/21 11:12:58;;;;;;;6.05;1.70;;;;;;;12.35;100.00;99728.47;5349202;27;20027;-76
2023/12/21 11:15:31;;;;;;;4.63;1.02;;;;;;;12.33;100.00;99729.63;5344046;27;20076;-76
2023/12/21 11:18:23;;;;;;;7.43;1.73;;;;;;;12.58;100.00;99738.25;5346043;27;20066;-77
2023/12/21 11:20:59;;;;;;;2.97;0.90;;;;;;;12.34;100.00;99736.50;5347336;27;20038;-78
2023/12/21 11:23:41;;;;;;;4.45;0.90;;;;;;;12.42;100.00;99712.81;5346267;27;20019;-77
2023/12/21 11:26:20;;;;;;;12.35;1.65;;;;;;;12.40;100.00;99706.94;5347772;27;20031;-77
2023/12/21 11:29:03;;;;;;;4.57;1.10;;;;;;;12.51;100.00;99717.09;5347921;27;20031;-78
2023/12/21 11:31:39;;;;;;;5.70;1.20;;;;;;;12.37;100.00;99717.78;5345356;27;20031;-77
2023/12/21 11:34:18;;;;;;;5.25;1.50;;;;;;;12.45;100.00;99727.44;5345510;27;20021;-77
2023/12/21 11:36:57;;;;;;;5.68;1.33;;;;;;;12.37;100.00;99713.34;5342568;27;20026;-78
2023/12/21 11:39:30;;;;;;;5.03;1.35;;;;;;;12.40;100.00;99696.44;5342010;27;20055;-77